createdAt,value
2018-10-11T00:00:03.338Z,981.05
2018-10-11T00:01:03.285Z,981.07
2018-10-11T00:02:03.234Z,981.11
2018-10-11T00:03:03.182Z,981.12
2018-10-11T00:04:03.131Z,981.15
2018-10-11T00:05:03.083Z,981.13
2018-10-11T00:06:03.034Z,981.10
2018-10-11T00:07:02.977Z,981.15
2018-10-11T00:08:02.926Z,981.14
2018-10-11T00:09:02.875Z,981.14
2018-10-11T00:10:02.825Z,981.14
2018-10-11T00:11:02.774Z,981.20
2018-10-11T00:12:02.723Z,981.20
2018-10-11T00:13:02.669Z,981.27
2018-10-11T00:14:02.617Z,981.24
2018-10-11T00:15:02.568Z,981.22
2018-10-11T00:16:02.515Z,981.19
2018-10-11T00:17:02.463Z,981.22
2018-10-11T00:18:02.414Z,981.21
2018-10-11T00:19:02.361Z,981.27
2018-10-11T00:20:02.404Z,981.24
2018-10-11T00:21:02.261Z,981.26
2018-10-11T00:22:02.210Z,981.22
2018-10-11T00:23:02.155Z,981.19
2018-10-11T00:24:02.108Z,981.29
2018-10-11T00:25:02.055Z,981.21
2018-10-11T00:26:02.002Z,981.19
2018-10-11T00:27:01.949Z,981.21
2018-10-11T00:28:01.898Z,981.17
2018-10-11T00:29:01.851Z,981.18
2018-10-11T00:30:01.797Z,981.17
2018-10-11T00:31:01.745Z,981.19
2018-10-11T00:32:01.695Z,981.18
2018-10-11T00:33:01.642Z,981.14
2018-10-11T00:34:01.590Z,981.15
2018-10-11T00:35:01.541Z,981.19
2018-10-11T00:36:01.487Z,981.20
2018-10-11T00:37:01.437Z,981.14
2018-10-11T00:38:01.387Z,981.16
2018-10-11T00:39:01.332Z,981.17
2018-10-11T00:40:01.281Z,981.16
2018-10-11T00:41:01.231Z,981.18
2018-10-11T00:42:01.179Z,981.17
2018-10-11T00:43:01.127Z,981.18
2018-10-11T00:44:01.078Z,981.16
2018-10-11T00:45:01.025Z,981.17
2018-10-11T00:46:00.974Z,981.18
2018-10-11T00:47:00.925Z,981.20
2018-10-11T00:48:00.870Z,981.21
2018-10-11T00:49:00.817Z,981.24
2018-10-11T00:50:00.766Z,981.24
2018-10-11T00:51:00.714Z,981.14
2018-10-11T00:52:00.663Z,981.21
2018-10-11T00:53:00.612Z,981.14
2018-10-11T00:54:00.562Z,981.12
2018-10-11T00:55:00.508Z,981.10
2018-10-11T00:56:00.458Z,981.13
2018-10-11T00:57:00.405Z,981.09
2018-10-11T00:58:00.355Z,981.08
2018-10-11T00:59:00.303Z,981.05
2018-10-11T01:00:00.252Z,981.04
2018-10-11T01:01:00.204Z,980.99
2018-10-11T01:02:00.150Z,980.99
2018-10-11T01:03:00.096Z,980.95
2018-10-11T01:04:00.048Z,981.00
2018-10-11T01:04:59.996Z,980.99
2018-10-11T01:05:59.944Z,981.00
2018-10-11T01:06:59.890Z,980.99
2018-10-11T01:07:59.839Z,981.00
2018-10-11T01:08:59.790Z,981.07
2018-10-11T01:09:59.770Z,981.01
2018-10-11T01:10:59.685Z,980.98
2018-10-11T01:11:59.634Z,980.97
2018-10-11T01:12:59.588Z,980.95
2018-10-11T01:13:59.532Z,980.94
2018-10-11T01:14:59.479Z,980.92
2018-10-11T01:15:59.427Z,980.91
2018-10-11T01:16:59.376Z,980.89
2018-10-11T01:17:59.331Z,980.88
2018-10-11T01:18:59.272Z,980.89
2018-10-11T01:19:59.222Z,980.84
2018-10-11T01:20:59.173Z,980.88
2018-10-11T01:21:59.118Z,980.83
2018-10-11T01:22:59.075Z,980.85
2018-10-11T01:23:59.016Z,980.79
2018-10-11T01:24:58.963Z,980.79
2018-10-11T01:25:58.913Z,980.74
2018-10-11T01:26:58.866Z,980.77
2018-10-11T01:27:58.809Z,980.69
2018-10-11T01:28:58.758Z,980.71
2018-10-11T01:29:58.726Z,980.64
2018-10-11T01:30:58.655Z,980.65
2018-10-11T01:31:58.604Z,980.65
2018-10-11T01:32:58.551Z,980.66
2018-10-11T01:33:58.500Z,980.64
2018-10-11T01:34:58.453Z,980.65
2018-10-11T01:35:58.397Z,980.63
2018-10-11T01:36:58.345Z,980.63
2018-10-11T01:37:58.294Z,980.70
2018-10-11T01:38:58.241Z,980.70
2018-10-11T01:39:58.189Z,980.66
2018-10-11T01:40:58.142Z,980.63
2018-10-11T01:41:58.087Z,980.64
2018-10-11T01:42:58.035Z,980.63
2018-10-11T01:43:57.985Z,980.66
2018-10-11T01:44:57.940Z,980.62
2018-10-11T01:45:57.881Z,980.62
2018-10-11T01:46:57.851Z,980.62
2018-10-11T01:47:57.778Z,980.59
2018-10-11T01:48:57.726Z,980.57
2018-10-11T01:49:57.675Z,980.59
2018-10-11T01:50:57.622Z,980.59
2018-10-11T01:51:57.570Z,980.58
2018-10-11T01:52:57.519Z,980.57
2018-10-11T01:53:57.468Z,980.55
2018-10-11T01:54:57.417Z,980.50
2018-10-11T01:55:57.365Z,980.51
2018-10-11T01:56:57.321Z,980.55
2018-10-11T01:57:57.261Z,980.50
2018-10-11T01:58:57.208Z,980.50
2018-10-11T01:59:57.157Z,980.45
2018-10-11T02:00:57.105Z,980.51
2018-10-11T02:01:57.054Z,980.50
2018-10-11T02:02:57.002Z,980.53
2018-10-11T02:03:56.951Z,980.50
2018-10-11T02:04:56.898Z,980.55
2018-10-11T02:05:56.848Z,980.50
2018-10-11T02:06:56.801Z,980.55
2018-10-11T02:07:56.780Z,980.52
2018-10-11T02:08:56.692Z,980.51
2018-10-11T02:09:56.642Z,980.56
2018-10-11T02:10:56.587Z,980.53
2018-10-11T02:11:56.536Z,980.50
2018-10-11T02:12:56.484Z,980.55
2018-10-11T02:13:56.435Z,980.54
2018-10-11T02:14:56.380Z,980.53
2018-10-11T02:15:56.331Z,980.54
2018-10-11T02:16:56.278Z,980.49
2018-10-11T02:17:56.227Z,980.51
2018-10-11T02:18:56.176Z,980.49
2018-10-11T02:19:56.124Z,980.52
2018-10-11T02:20:56.073Z,980.50
2018-10-11T02:21:56.022Z,980.50
2018-10-11T02:22:55.974Z,980.47
2018-10-11T02:23:55.916Z,980.49
2018-10-11T02:24:55.868Z,980.44
2018-10-11T02:25:55.824Z,980.42
2018-10-11T02:26:55.762Z,980.40
2018-10-11T02:27:55.710Z,980.38
2018-10-11T02:28:55.659Z,980.37
2018-10-11T02:29:55.607Z,980.40
2018-10-11T02:30:55.553Z,980.41
2018-10-11T02:31:55.547Z,980.40
2018-10-11T02:32:55.450Z,980.43
2018-10-11T02:33:55.399Z,980.46
2018-10-11T02:34:55.349Z,980.44
2018-10-11T02:35:55.296Z,980.49
2018-10-11T02:36:55.244Z,980.53
2018-10-11T02:37:55.198Z,980.57
2018-10-11T02:38:55.140Z,980.54
2018-10-11T02:39:55.088Z,980.48
2018-10-11T02:40:55.038Z,980.49
2018-10-11T02:41:54.989Z,980.50
2018-10-11T02:42:54.933Z,980.48
2018-10-11T02:43:54.886Z,980.49
2018-10-11T02:44:54.830Z,980.50
2018-10-11T02:45:54.778Z,980.46
2018-10-11T02:46:54.726Z,980.46
2018-10-11T02:47:54.675Z,980.44
2018-10-11T02:48:54.623Z,980.44
2018-10-11T02:49:54.572Z,980.40
2018-10-11T02:50:54.519Z,980.40
2018-10-11T02:51:54.468Z,980.39
2018-10-11T02:52:54.415Z,980.37
2018-10-11T02:53:54.365Z,980.37
2018-10-11T02:54:54.312Z,980.37
2018-10-11T02:55:54.260Z,980.41
2018-10-11T02:56:54.210Z,980.39
2018-10-11T02:57:54.157Z,980.41
2018-10-11T02:58:54.106Z,980.42
2018-10-11T02:59:54.053Z,980.37
2018-10-11T03:00:54.001Z,980.39
2018-10-11T03:01:53.949Z,980.39
2018-10-11T03:02:53.897Z,980.36
2018-10-11T03:03:53.845Z,980.35
2018-10-11T03:04:53.795Z,980.35
2018-10-11T03:05:53.743Z,980.40
2018-10-11T03:06:53.690Z,980.42
2018-10-11T03:07:53.639Z,980.39
2018-10-11T03:08:53.589Z,980.42
2018-10-11T03:09:53.534Z,980.43
2018-10-11T03:10:53.483Z,980.46
2018-10-11T03:11:53.431Z,980.47
2018-10-11T03:12:53.382Z,980.44
2018-10-11T03:13:53.327Z,980.48
2018-10-11T03:14:53.275Z,980.47
2018-10-11T03:15:53.235Z,980.50
2018-10-11T03:16:53.172Z,980.51
2018-10-11T03:17:53.119Z,980.51
2018-10-11T03:18:53.067Z,980.46
2018-10-11T03:19:53.016Z,980.53
2018-10-11T03:20:52.964Z,980.46
2018-10-11T03:21:52.911Z,980.51
2018-10-11T03:22:52.860Z,980.50
2018-10-11T03:23:52.808Z,980.50
2018-10-11T03:24:52.758Z,980.51
2018-10-11T03:25:52.712Z,980.57
2018-10-11T03:26:52.655Z,980.59
2018-10-11T03:27:52.604Z,980.59
2018-10-11T03:28:52.555Z,980.58
2018-10-11T03:29:52.498Z,980.65
2018-10-11T03:30:52.446Z,980.66
2018-10-11T03:31:52.393Z,980.62
2018-10-11T03:32:52.343Z,980.64
2018-10-11T03:33:52.290Z,980.63
2018-10-11T03:34:52.239Z,980.64
2018-10-11T03:35:52.187Z,980.64
2018-10-11T03:36:52.135Z,980.60
2018-10-11T03:37:52.082Z,980.62
2018-10-11T03:38:52.030Z,980.63
2018-10-11T03:39:51.982Z,980.61
2018-10-11T03:40:51.926Z,980.63
2018-10-11T03:41:51.874Z,980.60
2018-10-11T03:42:51.824Z,980.59
2018-10-11T03:43:51.770Z,980.55
2018-10-11T03:44:51.719Z,980.56
2018-10-11T03:45:51.667Z,980.61
2018-10-11T03:46:51.615Z,980.60
2018-10-11T03:47:51.562Z,980.58
2018-10-11T03:48:51.511Z,980.58
2018-10-11T03:49:51.459Z,980.59
2018-10-11T03:50:51.410Z,980.57
2018-10-11T03:51:51.354Z,980.57
2018-10-11T03:52:51.303Z,980.57
2018-10-11T03:53:51.251Z,980.62
2018-10-11T03:54:51.201Z,980.64
2018-10-11T03:55:51.149Z,980.61
2018-10-11T03:56:51.096Z,980.55
2018-10-11T03:57:51.053Z,980.58
2018-10-11T03:58:50.992Z,980.59
2018-10-11T03:59:50.939Z,980.56
2018-10-11T04:00:50.888Z,980.56
2018-10-11T04:01:50.836Z,980.58
2018-10-11T04:02:50.783Z,980.57
2018-10-11T04:03:50.731Z,980.56
2018-10-11T04:04:50.680Z,980.58
2018-10-11T04:05:50.628Z,980.56
2018-10-11T04:06:50.575Z,980.56
2018-10-11T04:07:50.525Z,980.57
2018-10-11T04:08:50.472Z,980.57
2018-10-11T04:09:50.422Z,980.53
2018-10-11T04:10:50.368Z,980.50
2018-10-11T04:11:50.320Z,980.50
2018-10-11T04:12:50.266Z,980.52
2018-10-11T04:13:50.212Z,980.51
2018-10-11T04:14:50.166Z,980.53
2018-10-11T04:15:50.107Z,980.51
2018-10-11T04:16:50.059Z,980.55
2018-10-11T04:17:50.004Z,980.51
2018-10-11T04:18:49.952Z,980.47
2018-10-11T04:19:49.902Z,980.49
2018-10-11T04:20:49.848Z,980.46
2018-10-11T04:21:49.798Z,980.45
2018-10-11T04:22:49.743Z,980.45
2018-10-11T04:23:49.690Z,980.42
2018-10-11T04:24:49.640Z,980.44
2018-10-11T04:25:49.589Z,980.46
2018-10-11T04:26:49.540Z,980.48
2018-10-11T04:27:49.486Z,980.51
2018-10-11T04:28:49.432Z,980.58
2018-10-11T04:29:49.381Z,980.59
2018-10-11T04:30:49.327Z,980.59
2018-10-11T04:31:49.274Z,980.62
2018-10-11T04:32:49.223Z,980.64
2018-10-11T04:33:49.172Z,980.65
2018-10-11T04:34:49.124Z,980.61
2018-10-11T04:35:49.067Z,980.62
2018-10-11T04:36:49.016Z,980.62
2018-10-11T04:37:48.962Z,980.55
2018-10-11T04:38:48.914Z,980.57
2018-10-11T04:39:48.858Z,980.60
2018-10-11T04:40:48.808Z,980.55
2018-10-11T04:41:48.756Z,980.56
2018-10-11T04:42:48.748Z,980.52
2018-10-11T04:43:48.649Z,980.57
2018-10-11T04:44:48.597Z,980.56
2018-10-11T04:45:48.547Z,980.55
2018-10-11T04:46:48.496Z,980.59
2018-10-11T04:47:48.440Z,980.55
2018-10-11T04:48:48.389Z,980.54
2018-10-11T04:49:48.338Z,980.54
2018-10-11T04:50:48.285Z,980.57
2018-10-11T04:51:48.241Z,980.53
2018-10-11T04:52:48.180Z,980.56
2018-10-11T04:53:48.129Z,980.57
2018-10-11T04:54:48.076Z,980.54
2018-10-11T04:55:48.024Z,980.55
2018-10-11T04:56:47.978Z,980.57
2018-10-11T04:57:47.922Z,980.57
2018-10-11T04:58:47.867Z,980.57
2018-10-11T04:59:47.845Z,980.56
2018-10-11T05:00:47.766Z,980.61
2018-10-11T05:01:47.714Z,980.53
2018-10-11T05:02:47.658Z,980.60
2018-10-11T05:03:47.608Z,980.60
2018-10-11T05:04:47.556Z,980.58
2018-10-11T05:05:47.510Z,980.59
2018-10-11T05:06:47.450Z,980.67
2018-10-11T05:07:47.399Z,980.60
2018-10-11T05:08:47.347Z,980.67
2018-10-11T05:09:47.295Z,980.64
2018-10-11T05:10:47.243Z,980.66
2018-10-11T05:11:47.190Z,980.60
2018-10-11T05:12:47.139Z,980.63
2018-10-11T05:13:47.086Z,980.65
2018-10-11T05:14:47.033Z,980.64
2018-10-11T05:15:46.984Z,980.69
2018-10-11T05:16:46.929Z,980.70
2018-10-11T05:17:46.876Z,980.74
2018-10-11T05:18:46.825Z,980.78
2018-10-11T05:19:46.773Z,980.74
2018-10-11T05:20:46.727Z,980.69
2018-10-11T05:21:46.669Z,980.72
2018-10-11T05:22:46.618Z,980.65
2018-10-11T05:23:46.565Z,980.63
2018-10-11T05:24:46.512Z,980.63
2018-10-11T05:25:46.461Z,980.69
2018-10-11T05:26:46.407Z,980.70
2018-10-11T05:27:46.355Z,980.75
2018-10-11T05:28:46.303Z,980.78
2018-10-11T05:29:46.252Z,980.83
2018-10-11T05:30:46.199Z,980.83
2018-10-11T05:31:46.149Z,980.83
2018-10-11T05:32:46.098Z,980.87
2018-10-11T05:33:46.043Z,980.90
2018-10-11T05:34:45.993Z,980.89
2018-10-11T05:35:45.947Z,980.88
2018-10-11T05:36:45.888Z,980.85
2018-10-11T05:37:45.836Z,980.86
2018-10-11T05:38:45.785Z,980.84
2018-10-11T05:39:45.730Z,980.86
2018-10-11T05:40:45.678Z,980.85
2018-10-11T05:41:45.627Z,980.86
2018-10-11T05:42:45.573Z,980.87
2018-10-11T05:43:45.521Z,980.95
2018-10-11T05:44:45.473Z,980.94
2018-10-11T05:45:45.415Z,980.95
2018-10-11T05:46:45.379Z,980.96
2018-10-11T05:47:45.310Z,980.95
2018-10-11T05:48:45.258Z,980.94
2018-10-11T05:49:45.207Z,980.95
2018-10-11T05:50:45.154Z,980.99
2018-10-11T05:51:45.108Z,981.00
2018-10-11T05:52:45.058Z,981.00
2018-10-11T05:53:45.003Z,980.98
2018-10-11T05:54:44.948Z,980.95
2018-10-11T05:55:44.899Z,980.99
2018-10-11T05:56:44.912Z,981.00
2018-10-11T05:57:44.788Z,980.97
2018-10-11T05:58:44.735Z,980.97
2018-10-11T05:59:44.684Z,980.98
2018-10-11T06:00:44.634Z,980.99
2018-10-11T06:01:44.580Z,980.99
2018-10-11T06:02:44.527Z,980.98
2018-10-11T06:03:44.479Z,980.94
2018-10-11T06:04:44.422Z,980.95
2018-10-11T06:05:44.372Z,981.00
2018-10-11T06:06:44.323Z,981.04
2018-10-11T06:07:44.267Z,981.04
2018-10-11T06:08:44.212Z,981.07
2018-10-11T06:09:44.161Z,981.03
2018-10-11T06:10:44.108Z,981.07
2018-10-11T06:11:44.095Z,981.08
2018-10-11T06:12:44.004Z,981.10
2018-10-11T06:13:43.954Z,981.11
2018-10-11T06:14:43.898Z,981.12
2018-10-11T06:15:43.846Z,981.11
2018-10-11T06:16:43.845Z,981.10
2018-10-11T06:17:43.765Z,981.07
2018-10-11T06:18:43.689Z,981.10
2018-10-11T06:19:43.641Z,981.06
2018-10-11T06:20:43.593Z,981.09
2018-10-11T06:21:43.538Z,981.12
2018-10-11T06:22:43.484Z,981.17
2018-10-11T06:23:43.429Z,981.19
2018-10-11T06:24:43.444Z,981.20
2018-10-11T06:25:43.323Z,981.23
2018-10-11T06:26:43.272Z,981.23
2018-10-11T06:27:43.218Z,981.25
2018-10-11T06:28:43.170Z,981.23
2018-10-11T06:29:43.115Z,981.26
2018-10-11T06:30:43.061Z,981.29
2018-10-11T06:31:43.016Z,981.29
2018-10-11T06:32:42.957Z,981.28
2018-10-11T06:33:42.906Z,981.32
2018-10-11T06:34:42.853Z,981.36
2018-10-11T06:35:42.838Z,981.36
2018-10-11T06:36:42.828Z,981.35
2018-10-11T06:37:42.696Z,981.38
2018-10-11T06:38:42.643Z,981.39
2018-10-11T06:39:42.595Z,981.39
2018-10-11T06:40:42.537Z,981.40
2018-10-11T06:41:42.511Z,981.43
2018-10-11T06:42:42.488Z,981.45
2018-10-11T06:43:42.380Z,981.51
2018-10-11T06:44:42.329Z,981.52
2018-10-11T06:45:42.278Z,981.50
2018-10-11T06:46:42.225Z,981.52
2018-10-11T06:47:42.174Z,981.53
2018-10-11T06:48:42.119Z,981.55
2018-10-11T06:49:42.096Z,981.54
2018-10-11T06:50:42.019Z,981.59
2018-10-11T06:51:41.964Z,981.61
2018-10-11T06:52:41.912Z,981.60
2018-10-11T06:53:41.857Z,981.62
2018-10-11T06:54:41.804Z,981.64
2018-10-11T06:55:41.754Z,981.68
2018-10-11T06:56:41.708Z,981.71
2018-10-11T06:57:41.648Z,981.72
2018-10-11T06:58:41.598Z,981.74
2018-10-11T06:59:41.543Z,981.73
2018-10-11T07:00:41.492Z,981.72
2018-10-11T07:01:41.461Z,981.73
2018-10-11T07:02:41.387Z,981.77
2018-10-11T07:03:41.336Z,981.80
2018-10-11T07:04:41.282Z,981.85
2018-10-11T07:05:41.658Z,981.84
2018-10-11T07:06:41.179Z,981.81
2018-10-11T07:07:41.128Z,981.87
2018-10-11T07:08:41.087Z,981.88
2018-10-11T07:09:41.020Z,981.99
2018-10-11T07:10:40.968Z,981.94
2018-10-11T07:11:40.915Z,981.98
2018-10-11T07:12:40.863Z,982.06
2018-10-11T07:13:40.809Z,982.04
2018-10-11T07:14:40.759Z,982.12
2018-10-11T07:15:40.706Z,982.15
2018-10-11T07:16:40.653Z,982.18
2018-10-11T07:17:40.601Z,982.24
2018-10-11T07:18:40.547Z,982.27
2018-10-11T07:19:40.495Z,982.29
2018-10-11T07:20:40.442Z,982.24
2018-10-11T07:21:40.389Z,982.22
2018-10-11T07:22:40.338Z,982.19
2018-10-11T07:23:40.285Z,982.19
2018-10-11T07:24:40.241Z,982.18
2018-10-11T07:25:40.184Z,982.20
2018-10-11T07:26:40.128Z,982.21
2018-10-11T07:27:40.075Z,982.24
2018-10-11T07:28:40.023Z,982.19
2018-10-11T07:29:39.970Z,982.22
2018-10-11T07:30:39.916Z,982.21
2018-10-11T07:31:39.865Z,982.23
2018-10-11T07:32:39.815Z,982.26
2018-10-11T07:33:39.765Z,982.28
2018-10-11T07:34:39.805Z,982.28
2018-10-11T07:35:39.659Z,982.27
2018-10-11T07:36:39.604Z,982.27
2018-10-11T07:37:39.551Z,982.25
2018-10-11T07:38:39.500Z,982.32
2018-10-11T07:39:39.447Z,982.28
2018-10-11T07:40:39.497Z,982.30
2018-10-11T07:41:39.342Z,982.32
2018-10-11T07:42:39.288Z,982.37
2018-10-11T07:43:39.237Z,982.38
2018-10-11T07:44:39.184Z,982.42
2018-10-11T07:45:39.132Z,982.44
2018-10-11T07:46:39.078Z,982.46
2018-10-11T07:47:39.029Z,982.45
2018-10-11T07:48:38.975Z,982.46
2018-10-11T07:49:38.926Z,982.54
2018-10-11T07:50:38.869Z,982.57
2018-10-11T07:51:38.817Z,982.62
2018-10-11T07:52:38.806Z,982.61
2018-10-11T07:53:38.713Z,982.58
2018-10-11T07:54:38.660Z,982.61
2018-10-11T07:55:38.608Z,982.57
2018-10-11T07:56:38.556Z,982.60
2018-10-11T07:57:38.504Z,982.58
2018-10-11T07:58:38.486Z,982.60
2018-10-11T07:59:38.398Z,982.59
2018-10-11T08:00:38.347Z,982.58
2018-10-11T08:01:38.338Z,982.58
2018-10-11T08:02:38.241Z,982.56
2018-10-11T08:03:38.270Z,982.52
2018-10-11T08:04:38.137Z,982.52
2018-10-11T08:05:38.087Z,982.54
2018-10-11T08:06:38.030Z,982.58
2018-10-11T08:07:38.032Z,982.61
2018-10-11T08:08:37.995Z,982.64
2018-10-11T08:09:37.877Z,982.65
2018-10-11T08:10:37.940Z,982.65
2018-10-11T08:11:37.829Z,982.64
2018-10-11T08:12:37.721Z,982.64
2018-10-11T08:13:37.773Z,982.62
2018-10-11T08:14:37.611Z,982.66
2018-10-11T08:15:37.560Z,982.65
2018-10-11T08:16:37.598Z,982.69
2018-10-11T08:17:37.815Z,982.65
2018-10-11T08:18:37.414Z,982.65
2018-10-11T08:19:37.375Z,982.68
2018-10-11T08:20:37.420Z,982.71
2018-10-11T08:21:37.276Z,982.75
2018-10-11T08:22:37.191Z,982.74
2018-10-11T08:23:37.141Z,982.75
2018-10-11T08:24:37.249Z,982.74
2018-10-11T08:25:37.461Z,982.69
2018-10-11T08:26:36.985Z,982.71
2018-10-11T08:27:36.933Z,982.75
2018-10-11T08:28:36.879Z,982.76
2018-10-11T08:29:36.828Z,982.73
2018-10-11T08:30:36.775Z,982.83
2018-10-11T08:31:36.731Z,982.82
2018-10-11T08:32:36.881Z,982.82
2018-10-11T08:33:36.617Z,982.82
2018-10-11T08:34:36.568Z,982.81
2018-10-11T08:35:36.517Z,982.80
2018-10-11T08:36:36.460Z,982.81
2018-10-11T08:37:36.459Z,982.86
2018-10-11T08:38:36.444Z,982.90
2018-10-11T08:39:36.303Z,982.94
2018-10-11T08:40:36.250Z,982.90
2018-10-11T08:41:36.199Z,982.93
2018-10-11T08:42:36.145Z,982.91
2018-10-11T08:43:36.251Z,982.85
2018-10-11T08:44:36.039Z,982.87
2018-10-11T08:45:35.990Z,982.88
2018-10-11T08:46:35.935Z,982.89
2018-10-11T08:47:35.883Z,982.86
2018-10-11T08:48:35.831Z,982.87
2018-10-11T08:49:35.778Z,982.89
2018-10-11T08:50:35.763Z,982.86
2018-10-11T08:51:35.673Z,982.87
2018-10-11T08:52:35.628Z,982.87
2018-10-11T08:53:35.628Z,982.88
2018-10-11T08:54:35.525Z,982.91
2018-10-11T08:55:35.570Z,982.89
2018-10-11T08:56:35.417Z,982.87
2018-10-11T08:57:35.359Z,982.83
2018-10-11T08:58:35.307Z,982.78
2018-10-11T08:59:35.312Z,982.81
2018-10-11T09:00:35.202Z,982.80
2018-10-11T09:01:35.153Z,982.79
2018-10-11T09:02:35.100Z,982.73
2018-10-11T09:03:35.203Z,982.74
2018-10-11T09:04:34.993Z,982.73
2018-10-11T09:05:34.941Z,982.75
2018-10-11T09:06:34.888Z,982.76
2018-10-11T09:07:34.836Z,982.77
2018-10-11T09:08:34.784Z,982.77
2018-10-11T09:09:34.799Z,982.79
2018-10-11T09:10:38.345Z,982.81
2018-10-11T09:11:34.627Z,982.85
2018-10-11T09:12:34.574Z,982.86
2018-10-11T09:13:34.522Z,982.85
2018-10-11T09:14:34.469Z,982.90
2018-10-11T09:15:34.416Z,982.85
2018-10-11T09:16:34.373Z,982.84
2018-10-11T09:17:34.312Z,982.84
2018-10-11T09:18:34.260Z,982.85
2018-10-11T09:19:34.208Z,982.85
2018-10-11T09:20:34.162Z,982.87
2018-10-11T09:21:34.105Z,982.83
2018-10-11T09:22:34.050Z,982.86
2018-10-11T09:23:33.999Z,982.87
2018-10-11T09:24:33.949Z,982.85
2018-10-11T09:25:33.893Z,982.81
2018-10-11T09:26:33.841Z,982.84
2018-10-11T09:27:33.788Z,982.86
2018-10-11T09:28:33.738Z,982.87
2018-10-11T09:29:33.685Z,982.85
2018-10-11T09:30:33.634Z,982.82
2018-10-11T09:31:33.580Z,982.85
2018-10-11T09:32:33.529Z,982.82
2018-10-11T09:33:33.476Z,982.84
2018-10-11T09:34:33.422Z,982.84
2018-10-11T09:35:33.371Z,982.82
2018-10-11T09:36:33.516Z,982.79
2018-10-11T09:37:33.267Z,982.83
2018-10-11T09:38:33.214Z,982.87
2018-10-11T09:39:33.165Z,982.90
2018-10-11T09:40:33.110Z,982.89
2018-10-11T09:41:33.057Z,982.91
2018-10-11T09:42:33.005Z,982.93
2018-10-11T09:43:32.953Z,982.93
2018-10-11T09:44:32.903Z,982.93
2018-10-11T09:45:32.848Z,982.93
2018-10-11T09:46:32.797Z,982.93
2018-10-11T09:47:32.746Z,982.88
2018-10-11T09:48:32.698Z,982.86
2018-10-11T09:49:32.639Z,982.91
2018-10-11T09:50:32.587Z,982.83
2018-10-11T09:51:32.538Z,982.91
2018-10-11T09:52:32.481Z,982.90
2018-10-11T09:53:32.431Z,982.84
2018-10-11T09:54:32.491Z,982.83
2018-10-11T09:55:32.327Z,982.80
2018-10-11T09:56:32.276Z,982.78
2018-10-11T09:57:32.225Z,982.81
2018-10-11T09:58:32.167Z,982.83
2018-10-11T09:59:32.120Z,982.83
2018-10-11T10:00:32.068Z,982.82
2018-10-11T10:01:32.011Z,982.78
2018-10-11T10:02:31.961Z,982.81
2018-10-11T10:03:31.907Z,982.82
2018-10-11T10:04:31.856Z,982.87
2018-10-11T10:05:31.804Z,982.88
2018-10-11T10:06:31.749Z,982.89
2018-10-11T10:07:31.705Z,982.93
2018-10-11T10:08:31.648Z,982.91
2018-10-11T10:09:31.595Z,982.89
2018-10-11T10:10:31.543Z,982.89
2018-10-11T10:11:31.491Z,982.92
2018-10-11T10:12:31.436Z,982.83
2018-10-11T10:13:31.385Z,982.83
2018-10-11T10:14:31.333Z,982.82
2018-10-11T10:15:31.319Z,982.83
2018-10-11T10:16:31.228Z,982.86
2018-10-11T10:17:31.177Z,982.82
2018-10-11T10:18:31.123Z,982.82
2018-10-11T10:19:31.081Z,982.82
2018-10-11T10:20:31.020Z,982.81
2018-10-11T10:21:31.045Z,982.83
2018-10-11T10:22:30.916Z,982.83
2018-10-11T10:23:30.865Z,982.80
2018-10-11T10:24:31.011Z,982.83
2018-10-11T10:25:30.759Z,982.89
2018-10-11T10:26:30.729Z,982.85
2018-10-11T10:27:30.736Z,982.79
2018-10-11T10:28:30.603Z,982.82
2018-10-11T10:29:30.552Z,982.83
2018-10-11T10:30:30.498Z,982.80
2018-10-11T10:31:30.446Z,982.86
2018-10-11T10:32:30.394Z,982.88
2018-10-11T10:33:30.341Z,982.87
2018-10-11T10:34:30.290Z,982.86
2018-10-11T10:35:30.237Z,982.87
2018-10-11T10:36:30.186Z,982.90
2018-10-11T10:37:30.133Z,982.85
2018-10-11T10:38:30.084Z,982.90
2018-10-11T10:39:30.031Z,982.91
2018-10-11T10:40:29.977Z,982.88
2018-10-11T10:41:29.924Z,982.87
2018-10-11T10:42:29.871Z,982.84
2018-10-11T10:43:29.819Z,982.84
2018-10-11T10:44:29.768Z,982.83
2018-10-11T10:45:29.718Z,982.84
2018-10-11T10:46:29.666Z,982.82
2018-10-11T10:47:29.611Z,982.78
2018-10-11T10:48:29.559Z,982.75
2018-10-11T10:49:29.509Z,982.79
2018-10-11T10:50:29.454Z,982.78
2018-10-11T10:51:29.405Z,982.78
2018-10-11T10:52:29.351Z,982.78
2018-10-11T10:53:29.299Z,982.78
2018-10-11T10:54:29.247Z,982.77
2018-10-11T10:55:29.194Z,982.75
2018-10-11T10:56:29.144Z,982.72
2018-10-11T10:57:29.091Z,982.74
2018-10-11T10:58:29.038Z,982.75
2018-10-11T10:59:28.986Z,982.69
2018-10-11T11:00:28.936Z,982.73
2018-10-11T11:01:28.884Z,982.71
2018-10-11T11:02:28.831Z,982.70
2018-10-11T11:03:28.779Z,982.68
2018-10-11T11:04:28.730Z,982.66
2018-10-11T11:05:28.676Z,982.62
2018-10-11T11:06:28.634Z,982.64
2018-10-11T11:07:28.611Z,982.65
2018-10-11T11:08:28.519Z,982.63
2018-10-11T11:09:28.469Z,982.63
2018-10-11T11:10:28.414Z,982.63
2018-10-11T11:11:28.361Z,982.62
2018-10-11T11:12:28.311Z,982.64
2018-10-11T11:13:28.259Z,982.63
2018-10-11T11:14:28.206Z,982.56
2018-10-11T11:15:28.155Z,982.56
2018-10-11T11:16:28.106Z,982.54
2018-10-11T11:17:28.051Z,982.52
2018-10-11T11:18:28.006Z,982.48
2018-10-11T11:19:27.952Z,982.50
2018-10-11T11:20:27.894Z,982.49
2018-10-11T11:21:27.844Z,982.45
2018-10-11T11:22:27.791Z,982.43
2018-10-11T11:23:27.738Z,982.43
2018-10-11T11:24:27.688Z,982.41
2018-10-11T11:25:27.640Z,982.41
2018-10-11T11:26:27.583Z,982.41
2018-10-11T11:27:27.537Z,982.41
2018-10-11T11:28:27.484Z,982.46
2018-10-11T11:29:27.428Z,982.45
2018-10-11T11:30:27.375Z,982.43
2018-10-11T11:31:27.327Z,982.44
2018-10-11T11:32:27.281Z,982.49
2018-10-11T11:33:27.220Z,982.49
2018-10-11T11:34:27.173Z,982.46
2018-10-11T11:35:27.117Z,982.47
2018-10-11T11:36:27.065Z,982.45
2018-10-11T11:37:27.012Z,982.46
2018-10-11T11:38:26.967Z,982.44
2018-10-11T11:39:26.924Z,982.42
2018-10-11T11:40:26.864Z,982.44
2018-10-11T11:41:26.813Z,982.41
2018-10-11T11:42:26.754Z,982.42
2018-10-11T11:43:26.701Z,982.41
2018-10-11T11:44:26.650Z,982.39
2018-10-11T11:45:26.596Z,982.39
2018-10-11T11:46:26.544Z,982.35
2018-10-11T11:47:26.492Z,982.39
2018-10-11T11:48:26.444Z,982.35
2018-10-11T11:49:26.393Z,982.33
2018-10-11T11:50:26.346Z,982.31
2018-10-11T11:51:26.284Z,982.31
2018-10-11T11:52:26.234Z,982.28
2018-10-11T11:53:26.182Z,982.27
2018-10-11T11:54:26.130Z,982.28
2018-10-11T11:55:26.080Z,982.25
2018-10-11T11:56:26.028Z,982.28
2018-10-11T11:57:25.978Z,982.29
2018-10-11T11:58:25.922Z,982.27
2018-10-11T11:59:25.871Z,982.26
2018-10-11T12:00:25.824Z,982.27
2018-10-11T12:01:25.768Z,982.30
2018-10-11T12:02:25.720Z,982.26
2018-10-11T12:03:25.664Z,982.30
2018-10-11T12:04:25.614Z,982.29
2018-10-11T12:05:25.562Z,982.26
2018-10-11T12:06:25.509Z,982.28
2018-10-11T12:07:25.457Z,982.27
2018-10-11T12:08:25.406Z,982.31
2018-10-11T12:09:25.357Z,982.31
2018-10-11T12:10:25.310Z,982.31
2018-10-11T12:11:25.250Z,982.27
2018-10-11T12:12:25.199Z,982.27
2018-10-11T12:13:25.151Z,982.24
2018-10-11T12:14:25.098Z,982.23
2018-10-11T12:15:25.043Z,982.18
2018-10-11T12:16:25.042Z,982.16
2018-10-11T12:17:24.939Z,982.12
2018-10-11T12:18:24.891Z,982.13
2018-10-11T12:19:24.836Z,982.13
2018-10-11T12:20:24.790Z,982.09
2018-10-11T12:21:24.734Z,982.13
2018-10-11T12:22:24.684Z,982.14
2018-10-11T12:23:24.632Z,982.10
2018-10-11T12:24:25.423Z,982.09
2018-10-11T12:25:24.526Z,982.06
2018-10-11T12:26:24.530Z,982.08
2018-10-11T12:27:24.424Z,982.08